Skip to main content.
Our real time weather data display below is updated continuously via our 24/7 live data feed.
 TIME   TEMPERATURE   WINDSPEED   DIRECTION   HUMIDITY   BAROMETER   RAINFALL 
19:05 13.0°C (55.4°F) 20.4 kmh (12.7 mph) WNW 81% 1022.0hPa (30.18 inHg) 0.0mm (0.00 in.)
18:05 14.0°C (57.2 °F) 27.8 kmh (17.3 mph) NW 76% 1021.0hPa (30.15 inHg) 0.0mm (0.00 in.)
17:05 15.0°C (59.0 °F) 27.8 kmh (17.3 mph) WNW 72% 1021.0hPa (30.15 inHg) 0.0mm (0.00 in.)
16:05 16.0°C (60.8 °F) 27.8 kmh (17.3 mph) WNW 63% 1020.0hPa (30.12 inHg) 0.0mm (0.00 in.)
15:05 17.0°C (62.6 °F) 29.6 kmh (18.4 mph) NW 59% 1021.0hPa (30.15 inHg) 0.0mm (0.00 in.)
14:05 17.0°C (62.6 °F) 31.5 kmh (19.6 mph) NNW 48% 1021.0hPa (30.15 inHg) 0.0mm (0.00 in.)
13:05 17.0°C (62.6 °F) 29.6 kmh (18.4 mph) NW 48% 1021.0hPa (30.15 inHg) 0.0mm (0.00 in.)
12:05 17.0°C (62.6 °F) 31.5 kmh (19.6 mph) NW 51% 1022.0hPa (30.18 inHg) 0.0mm (0.00 in.)
11:05 16.0°C (60.8 °F) 27.8 kmh (17.3 mph) NW 58% 1022.0hPa (30.18 inHg) 0.0mm (0.00 in.)
10:05 15.0°C (59.0 °F) 27.8 kmh (17.3 mph) NNW 62% 1022.0hPa (30.18 inHg) 0.0mm (0.00 in.)
9:05 14.0°C (57.2 °F) 24.1 kmh (15.0 mph) NW 71% 1022.0hPa (30.18 inHg) 0.0mm (0.00 in.)
8:05 13.0°C (55.4 °F) 18.5 kmh (11.5 mph) NW 81% 1021.0hPa (30.15 inHg) 0.0mm (0.00 in.)
7:05 12.0°C (53.6 °F) 18.5 kmh (11.5 mph) NW 81% 1021.0hPa (30.15 inHg) 0.0mm (0.00 in.)
6:05 12.0°C (53.6 °F) 20.4 kmh (12.7 mph) NW 81% 1020.0hPa (30.12 inHg) 0.0mm (0.00 in.)
5:05 12.0°C (53.6 °F) 24.1 kmh (15.0 mph) NW 81% 1020.0hPa (30.12 inHg) 0.0mm (0.00 in.)
4:05 12.0°C (53.6 °F) 22.2 kmh (13.8 mph) NW 81% 1020.0hPa (30.12 inHg) 0.0mm (0.00 in.)
3:05 13.0°C (55.4 °F) 27.8 kmh (17.3 mph) NW 81% 1021.0hPa (30.15 inHg) 0.0mm (0.00 in.)
2:05 13.0°C (55.4 °F) 24.1 kmh (15.0 mph) NW 76% 1021.0hPa (30.15 inHg) 0.0mm (0.00 in.)
1:05 13.0°C (55.4 °F) 33.3 kmh (20.7 mph) NW 71% 1021.0hPa (30.15 inHg) 0.0mm (0.00 in.)
0:05 13.0°C (55.4 °F) 35.2 kmh (21.9 mph) NW 71% 1021.0hPa (30.15 inHg) 0.0mm (0.00 in.)
23:05 12.0°C (53.6 °F) 24.1 kmh (15.0 mph) NW 81% 1021.0hPa (30.15 inHg) 0.0mm (0.00 in.)
22:05 12.0°C (53.6 °F) 31.5 kmh (19.6 mph) NW 81% 1021.0hPa (30.15 inHg) 0.0mm (0.00 in.)
21:05 12.0°C (53.6 °F) 31.5 kmh (19.6 mph) NW 81% 1021.0hPa (30.15 inHg) 0.0mm (0.00 in.)
20:05 13.0°C (55.4 °F) 33.3 kmh (20.7 mph) NW 81% 1021.0hPa (30.15 inHg) 0.0mm (0.00 in.)